createdAt,value
2018-03-21T00:02:15.828Z,2.40
2018-03-21T00:04:43.105Z,2.27
2018-03-21T00:07:10.360Z,2.37
2018-03-21T00:09:37.640Z,2.47
2018-03-21T00:12:04.895Z,2.70
2018-03-21T00:14:32.178Z,2.40
2018-03-21T00:16:59.454Z,2.57
2018-03-21T00:19:26.736Z,2.10
2018-03-21T00:21:54.044Z,2.60
2018-03-21T00:24:21.284Z,2.23
2018-03-21T00:26:48.536Z,2.30
2018-03-21T00:29:15.892Z,2.50
2018-03-21T00:31:43.148Z,2.93
2018-03-21T00:34:10.395Z,2.80
2018-03-21T00:36:37.668Z,2.57
2018-03-21T00:39:05.019Z,2.07
2018-03-21T00:41:32.269Z,2.33
2018-03-21T00:43:59.550Z,2.10
2018-03-21T00:46:26.801Z,3.10
2018-03-21T00:48:54.068Z,2.10
2018-03-21T00:51:21.345Z,2.33
2018-03-21T00:53:48.593Z,1.93
2018-03-21T00:56:15.876Z,2.17
2018-03-21T00:58:43.129Z,2.40
2018-03-21T01:01:10.389Z,2.53
2018-03-21T01:03:37.673Z,2.27
2018-03-21T01:06:04.930Z,3.10
2018-03-21T01:08:32.183Z,2.23
2018-03-21T01:10:59.465Z,2.60
2018-03-21T01:13:26.719Z,2.67
2018-03-21T01:15:53.985Z,2.70
2018-03-21T01:18:21.272Z,2.33
2018-03-21T01:20:48.544Z,2.50
2018-03-21T01:23:15.811Z,2.67
2018-03-21T01:25:43.049Z,2.50
2018-03-21T01:28:10.330Z,2.77
2018-03-21T01:30:37.582Z,2.63
2018-03-21T01:33:04.908Z,2.40
2018-03-21T01:35:32.162Z,2.60
2018-03-21T01:37:59.416Z,2.30
2018-03-21T01:40:26.705Z,2.90
2018-03-21T01:42:53.946Z,2.27
2018-03-21T01:45:21.270Z,2.27
2018-03-21T01:47:48.512Z,2.33
2018-03-21T01:50:15.799Z,2.40
2018-03-21T01:52:43.128Z,2.07
2018-03-21T01:55:10.396Z,2.70
2018-03-21T01:57:37.668Z,2.43
2018-03-21T02:00:04.931Z,3.40
2018-03-21T02:02:32.189Z,2.50
2018-03-21T02:04:59.466Z,2.73
2018-03-21T02:07:26.725Z,2.77
2018-03-21T02:09:54.005Z,2.57
2018-03-21T02:12:21.361Z,2.30
2018-03-21T02:14:48.617Z,2.43
2018-03-21T02:17:15.972Z,2.90
2018-03-21T02:19:43.232Z,2.63
2018-03-21T02:22:10.509Z,2.37
2018-03-21T02:24:37.757Z,2.30
2018-03-21T02:27:05.000Z,2.67
2018-03-21T02:29:32.286Z,2.60
2018-03-21T02:31:59.558Z,3.03
2018-03-21T02:34:26.842Z,2.63
2018-03-21T02:36:54.123Z,2.47
2018-03-21T02:39:21.367Z,2.40
2018-03-21T02:41:48.628Z,3.17
2018-03-21T02:44:15.910Z,2.47
2018-03-21T02:46:43.164Z,2.60
2018-03-21T02:49:10.437Z,2.67
2018-03-21T02:51:37.685Z,3.17
2018-03-21T02:54:04.952Z,2.23
2018-03-21T02:56:32.213Z,2.40
2018-03-21T02:58:59.503Z,2.70
2018-03-21T03:01:26.751Z,2.87
2018-03-21T03:03:54.006Z,2.10
2018-03-21T03:06:21.280Z,3.17
2018-03-21T03:08:48.531Z,2.67
2018-03-21T03:11:15.805Z,2.90
2018-03-21T03:13:43.052Z,3.00
2018-03-21T03:16:10.306Z,2.80
2018-03-21T03:18:37.603Z,2.73
2018-03-21T03:21:04.863Z,2.77
2018-03-21T03:23:32.109Z,2.67
2018-03-21T03:25:59.389Z,3.10
2018-03-21T03:28:26.713Z,3.40
2018-03-21T03:30:54.001Z,2.93
2018-03-21T03:33:21.248Z,2.67
2018-03-21T03:35:48.586Z,3.00
2018-03-21T03:38:15.849Z,3.00
2018-03-21T03:40:43.127Z,2.87
2018-03-21T03:43:10.381Z,2.70
2018-03-21T03:45:37.632Z,3.60
2018-03-21T03:48:04.911Z,3.07
2018-03-21T03:50:32.207Z,2.97
2018-03-21T03:52:59.461Z,3.13
2018-03-21T03:55:26.753Z,2.37
2018-03-21T03:57:54.000Z,3.10
2018-03-21T04:00:21.314Z,2.50
2018-03-21T04:02:48.565Z,2.70
2018-03-21T04:05:15.818Z,2.67
2018-03-21T04:07:43.097Z,2.93
2018-03-21T04:10:10.351Z,2.60
2018-03-21T04:12:37.602Z,2.93
2018-03-21T04:15:04.897Z,2.90
2018-03-21T04:17:32.155Z,3.00
2018-03-21T04:19:59.400Z,3.00
2018-03-21T04:22:26.812Z,2.93
2018-03-21T04:24:54.060Z,2.90
2018-03-21T04:27:21.309Z,2.80
2018-03-21T04:29:48.674Z,2.70
2018-03-21T04:32:15.921Z,3.10
2018-03-21T04:34:43.207Z,2.70
2018-03-21T04:37:10.460Z,3.30
2018-03-21T04:39:37.730Z,3.43
2018-03-21T04:42:04.996Z,3.07
2018-03-21T04:44:32.272Z,3.13
2018-03-21T04:46:59.524Z,3.20
2018-03-21T04:49:26.777Z,3.60
2018-03-21T04:51:54.050Z,3.40
2018-03-21T04:54:21.322Z,3.30
2018-03-21T04:56:48.570Z,3.40
2018-03-21T04:59:15.836Z,3.00
2018-03-21T05:01:43.102Z,2.80
2018-03-21T05:04:10.341Z,3.03
2018-03-21T05:06:37.767Z,3.50
2018-03-21T05:09:05.563Z,3.67
2018-03-21T05:11:32.812Z,2.77
2018-03-21T05:14:00.097Z,3.03
2018-03-21T05:16:27.354Z,3.00
2018-03-21T05:18:54.648Z,3.90
2018-03-21T05:21:21.929Z,2.67
2018-03-21T05:23:49.266Z,2.97
2018-03-21T05:26:16.630Z,3.53
2018-03-21T05:28:43.911Z,3.43
2018-03-21T05:31:11.231Z,3.23
2018-03-21T05:33:38.585Z,2.90
2018-03-21T05:36:05.848Z,2.87
2018-03-21T05:38:33.113Z,2.50
2018-03-21T05:41:00.373Z,2.80
2018-03-21T05:43:27.654Z,2.70
2018-03-21T05:45:54.896Z,3.10
2018-03-21T05:48:22.177Z,2.40
2018-03-21T05:50:49.437Z,3.60
2018-03-21T05:53:16.721Z,3.70
2018-03-21T05:55:44.072Z,3.17
2018-03-21T05:58:11.324Z,3.57
2018-03-21T06:00:38.580Z,3.10
2018-03-21T06:03:05.870Z,2.77
2018-03-21T06:05:37.972Z,3.77
2018-03-21T06:08:05.452Z,3.07
2018-03-21T06:10:32.710Z,3.67
2018-03-21T06:12:59.964Z,3.23
2018-03-21T06:15:27.245Z,2.77
2018-03-21T06:17:54.501Z,3.47
2018-03-21T06:20:21.776Z,2.80
2018-03-21T06:22:49.049Z,2.57
2018-03-21T06:25:16.303Z,3.00
2018-03-21T06:27:43.688Z,3.30
2018-03-21T06:30:10.942Z,2.67
2018-03-21T06:32:38.200Z,3.23
2018-03-21T06:35:05.553Z,3.07
2018-03-21T06:37:32.802Z,2.70
2018-03-21T06:40:00.089Z,3.13
2018-03-21T06:42:27.408Z,3.33
2018-03-21T06:44:54.665Z,3.60
2018-03-21T06:47:22.016Z,3.53
2018-03-21T06:49:49.303Z,6.17
2018-03-21T06:52:16.634Z,4.87
2018-03-21T06:54:43.986Z,7.20
2018-03-21T06:57:11.269Z,5.50
2018-03-21T06:59:38.528Z,7.13
2018-03-21T07:02:05.784Z,9.87
2018-03-21T07:04:33.095Z,11.17
2018-03-21T07:07:00.358Z,11.70
2018-03-21T07:09:27.625Z,10.80
2018-03-21T07:11:54.964Z,4.60
2018-03-21T07:14:28.047Z,46.40
2018-03-21T07:16:55.305Z,7.87
2018-03-21T07:19:22.560Z,4.03
2018-03-21T07:21:49.837Z,3.17
2018-03-21T07:24:17.096Z,3.63
2018-03-21T07:26:44.435Z,4.20
2018-03-21T07:29:12.419Z,4.60
2018-03-21T07:31:39.973Z,3.30
2018-03-21T07:34:07.253Z,3.73
2018-03-21T07:36:34.524Z,3.27
2018-03-21T07:39:01.857Z,3.50
2018-03-21T07:41:29.109Z,3.83
2018-03-21T07:43:56.363Z,5.03
2018-03-21T07:46:23.683Z,4.20
2018-03-21T07:48:50.966Z,3.80
2018-03-21T07:51:18.225Z,3.70
2018-03-21T07:53:45.477Z,3.07
2018-03-21T07:56:12.752Z,2.70
2018-03-21T07:58:40.145Z,5.63
2018-03-21T08:01:07.656Z,2.80
2018-03-21T08:03:35.224Z,2.80
2018-03-21T08:08:36.619Z,2.23
2018-03-21T08:11:03.853Z,2.57
2018-03-21T08:13:31.138Z,2.47
2018-03-21T08:15:58.390Z,2.40
2018-03-21T08:18:25.650Z,2.50
2018-03-21T08:20:53.120Z,3.37
2018-03-21T08:23:20.408Z,3.23
2018-03-21T08:25:47.668Z,4.00
2018-03-21T08:28:14.917Z,2.87
2018-03-21T08:30:42.207Z,4.43
2018-03-21T08:33:09.472Z,3.00
2018-03-21T08:35:36.748Z,2.23
2018-03-21T08:38:04.088Z,2.80
2018-03-21T08:40:31.332Z,3.50
2018-03-21T08:42:58.589Z,3.00
2018-03-21T08:45:25.866Z,3.70
2018-03-21T08:47:53.118Z,3.33
2018-03-21T08:50:20.453Z,2.93
2018-03-21T08:52:47.716Z,2.90
2018-03-21T08:55:14.967Z,2.60
2018-03-21T08:57:42.321Z,3.10
2018-03-21T09:00:09.636Z,3.40
2018-03-21T09:02:36.865Z,2.97
2018-03-21T09:05:04.145Z,2.83
2018-03-21T09:07:31.440Z,2.50
2018-03-21T09:09:58.686Z,3.00
2018-03-21T09:12:25.943Z,2.43
2018-03-21T09:14:53.235Z,3.07
2018-03-21T09:17:20.493Z,3.20
2018-03-21T09:19:47.749Z,3.30
2018-03-21T09:22:15.038Z,2.50
2018-03-21T09:24:42.288Z,2.70
2018-03-21T09:27:09.562Z,3.40
2018-03-21T09:29:36.813Z,2.23
2018-03-21T09:32:04.098Z,2.53
2018-03-21T09:34:31.368Z,2.43
2018-03-21T09:36:58.676Z,2.83
2018-03-21T09:39:25.990Z,2.30
2018-03-21T09:41:53.244Z,2.20
2018-03-21T09:44:20.649Z,2.27
2018-03-21T09:46:47.900Z,2.70
2018-03-21T09:49:15.156Z,2.43
2018-03-21T09:51:42.435Z,2.47
2018-03-21T09:54:09.679Z,2.13
2018-03-21T09:56:37.008Z,2.47
2018-03-21T09:59:04.360Z,2.30
2018-03-21T10:01:31.613Z,1.77
2018-03-21T10:03:58.891Z,1.90
2018-03-21T10:06:26.345Z,3.30
2018-03-21T10:08:53.632Z,1.87
2018-03-21T10:11:20.908Z,3.33
2018-03-21T10:13:48.163Z,3.13
2018-03-21T10:16:15.574Z,3.80
2018-03-21T10:18:42.821Z,2.90
2018-03-21T10:21:10.157Z,4.87
2018-03-21T10:23:37.436Z,2.10
2018-03-21T10:26:05.058Z,1.90
2018-03-21T10:28:32.332Z,2.40
2018-03-21T10:30:59.580Z,2.30
2018-03-21T10:33:27.056Z,2.50
2018-03-21T10:35:54.561Z,2.00
2018-03-21T10:38:21.865Z,2.30
2018-03-21T10:40:49.228Z,1.97
2018-03-21T10:43:16.477Z,2.30
2018-03-21T10:45:43.752Z,2.10
2018-03-21T10:48:11.011Z,1.87
2018-03-21T10:50:38.272Z,2.00
2018-03-21T10:53:05.574Z,2.40
2018-03-21T10:55:32.825Z,2.63
2018-03-21T10:58:00.113Z,2.40
2018-03-21T11:00:27.454Z,1.90
2018-03-21T11:03:00.564Z,2.20
2018-03-21T11:05:27.813Z,2.73
2018-03-21T11:07:55.061Z,2.93
2018-03-21T11:10:22.332Z,2.00
2018-03-21T11:12:49.581Z,2.50
2018-03-21T11:15:16.899Z,2.10
2018-03-21T11:17:44.148Z,2.20
2018-03-21T11:20:11.412Z,1.77
2018-03-21T11:22:38.660Z,1.67
2018-03-21T11:25:05.939Z,1.90
2018-03-21T11:27:33.192Z,2.20
2018-03-21T11:30:00.507Z,3.00
2018-03-21T11:32:27.753Z,2.47
2018-03-21T11:34:55.017Z,1.80
2018-03-21T11:37:22.280Z,2.17
2018-03-21T11:39:49.643Z,3.20
2018-03-21T11:42:16.913Z,1.90
2018-03-21T11:44:44.169Z,2.87
2018-03-21T11:47:11.442Z,2.10
2018-03-21T11:49:38.753Z,2.20
2018-03-21T11:52:06.026Z,2.17
2018-03-21T11:54:33.274Z,2.37
2018-03-21T11:57:00.546Z,1.93
2018-03-21T11:59:27.802Z,2.17
2018-03-21T12:01:55.118Z,2.70
2018-03-21T12:04:22.377Z,1.83
2018-03-21T12:06:49.728Z,2.50
2018-03-21T12:09:16.985Z,2.30
2018-03-21T12:11:44.266Z,2.00
2018-03-21T12:14:11.508Z,1.87
2018-03-21T12:16:38.780Z,1.43
2018-03-21T12:19:06.033Z,1.83
2018-03-21T12:21:33.312Z,1.87
2018-03-21T12:24:00.577Z,2.07
2018-03-21T12:26:27.861Z,2.70
2018-03-21T12:28:55.130Z,1.73
2018-03-21T12:31:22.464Z,2.27
2018-03-21T12:33:49.737Z,2.10
2018-03-21T12:36:16.988Z,2.33
2018-03-21T12:38:44.265Z,2.00
2018-03-21T12:41:11.526Z,2.20
2018-03-21T12:43:38.856Z,2.07
2018-03-21T12:46:06.085Z,2.13
2018-03-21T12:48:33.356Z,2.40
2018-03-21T12:51:00.608Z,2.10
2018-03-21T12:53:27.897Z,2.17
2018-03-21T12:55:55.257Z,2.57
2018-03-21T12:58:22.410Z,2.50
2018-03-21T13:00:49.681Z,2.00
2018-03-21T13:03:16.935Z,2.30
2018-03-21T13:05:44.208Z,2.23
2018-03-21T13:08:11.464Z,2.20
2018-03-21T13:10:38.735Z,2.60
2018-03-21T13:13:05.986Z,2.90
2018-03-21T13:15:33.253Z,2.43
2018-03-21T13:18:00.500Z,2.93
2018-03-21T13:20:27.777Z,2.70
2018-03-21T13:22:55.028Z,2.37
2018-03-21T13:25:22.344Z,2.50
2018-03-21T13:27:49.601Z,2.20
2018-03-21T13:30:16.960Z,2.83
2018-03-21T13:32:44.204Z,2.23
2018-03-21T13:35:11.481Z,2.70
2018-03-21T13:37:38.737Z,2.63
2018-03-21T13:40:06.077Z,2.77
2018-03-21T13:42:33.337Z,2.50
2018-03-21T13:45:00.584Z,2.03
2018-03-21T13:47:27.854Z,2.60
2018-03-21T13:49:55.105Z,2.63
2018-03-21T13:52:22.390Z,4.10
2018-03-21T13:54:49.633Z,3.53
2018-03-21T13:57:16.957Z,5.60
2018-03-21T13:59:44.200Z,3.73
2018-03-21T14:02:11.468Z,3.47
2018-03-21T14:04:38.746Z,3.03
2018-03-21T14:07:06.012Z,4.30
2018-03-21T14:09:33.264Z,3.13
2018-03-21T14:12:00.584Z,2.63
2018-03-21T14:14:27.847Z,2.90
2018-03-21T14:16:55.185Z,3.57
2018-03-21T14:19:22.440Z,2.93
2018-03-21T14:21:49.793Z,3.20
2018-03-21T14:24:17.054Z,3.40
2018-03-21T14:26:44.330Z,3.50
2018-03-21T14:29:11.586Z,2.70
2018-03-21T14:31:38.858Z,3.43
2018-03-21T14:34:06.160Z,3.03
2018-03-21T14:36:33.521Z,3.10
2018-03-21T14:39:00.878Z,3.20
2018-03-21T14:41:28.176Z,3.20
2018-03-21T14:43:55.480Z,2.90
2018-03-21T14:46:22.737Z,3.13
2018-03-21T14:48:50.009Z,3.43
2018-03-21T14:51:17.258Z,3.10
2018-03-21T14:53:44.531Z,2.80
2018-03-21T14:56:11.785Z,3.13
2018-03-21T14:58:39.062Z,3.37
2018-03-21T15:01:06.361Z,3.63
2018-03-21T15:03:34.024Z,3.10
2018-03-21T15:06:01.276Z,3.33
2018-03-21T15:08:28.628Z,3.60
2018-03-21T15:10:55.881Z,3.17
2018-03-21T15:13:23.161Z,3.23
2018-03-21T15:15:50.493Z,3.17
2018-03-21T15:18:17.749Z,3.17
2018-03-21T15:20:45.026Z,3.10
2018-03-21T15:23:12.276Z,3.23
2018-03-21T15:25:39.550Z,3.17
2018-03-21T15:28:06.860Z,3.07
2018-03-21T15:30:34.146Z,2.83
2018-03-21T15:33:01.472Z,3.47
2018-03-21T15:35:28.758Z,2.90
2018-03-21T15:37:56.008Z,2.87
2018-03-21T15:40:23.272Z,3.30
2018-03-21T15:42:50.590Z,3.37
2018-03-21T15:45:17.860Z,3.20
2018-03-21T15:47:45.140Z,3.80
2018-03-21T15:50:12.382Z,2.90
2018-03-21T15:52:39.633Z,3.13
2018-03-21T15:55:06.917Z,3.37
2018-03-21T15:57:34.184Z,3.30
2018-03-21T16:00:01.466Z,3.47
2018-03-21T16:02:28.733Z,4.10
2018-03-21T16:04:56.074Z,3.30
2018-03-21T16:07:23.340Z,3.37
2018-03-21T16:09:50.597Z,3.80
2018-03-21T16:12:17.865Z,3.73
2018-03-21T16:14:45.112Z,3.10
2018-03-21T16:17:12.388Z,4.00
2018-03-21T16:19:39.645Z,3.87
2018-03-21T16:22:06.917Z,4.40
2018-03-21T16:24:34.196Z,4.33
2018-03-21T16:27:01.472Z,3.60
2018-03-21T16:29:28.808Z,3.93
2018-03-21T16:31:56.084Z,4.57
2018-03-21T16:34:23.332Z,4.67
2018-03-21T16:36:50.668Z,4.87
2018-03-21T16:39:17.932Z,4.80
2018-03-21T16:41:45.289Z,4.97
2018-03-21T16:44:12.640Z,5.17
2018-03-21T16:46:39.989Z,5.20
2018-03-21T16:49:07.272Z,6.57
2018-03-21T16:51:34.599Z,6.10
2018-03-21T16:54:01.963Z,6.30
2018-03-21T16:56:29.317Z,7.00
2018-03-21T16:58:56.606Z,7.57
2018-03-21T17:01:23.873Z,7.80
2018-03-21T17:03:51.142Z,9.43
2018-03-21T17:06:18.400Z,8.10
2018-03-21T17:08:45.673Z,9.40
2018-03-21T17:11:12.944Z,10.10
2018-03-21T17:13:40.205Z,9.17
2018-03-21T17:16:07.486Z,8.67
2018-03-21T17:18:34.748Z,9.57
2018-03-21T17:21:02.030Z,9.20
2018-03-21T17:23:29.292Z,9.80
2018-03-21T17:25:56.565Z,9.73
2018-03-21T17:28:23.826Z,9.83
2018-03-21T17:30:51.944Z,10.73
2018-03-21T17:33:19.213Z,9.40
2018-03-21T17:35:46.495Z,10.53
2018-03-21T17:38:13.756Z,9.17
2018-03-21T17:40:41.044Z,11.10
2018-03-21T17:43:08.366Z,10.27
2018-03-21T17:45:35.644Z,9.73
2018-03-21T17:48:02.919Z,10.00
2018-03-21T17:50:30.177Z,10.20
2018-03-21T17:52:57.468Z,9.13
2018-03-21T17:55:24.733Z,10.10
2018-03-21T17:57:52.031Z,10.17
2018-03-21T18:00:19.378Z,9.70
2018-03-21T18:02:46.689Z,10.67
2018-03-21T18:05:13.956Z,10.63
2018-03-21T18:07:41.245Z,11.00
2018-03-21T18:10:08.560Z,10.13
2018-03-21T18:12:35.845Z,10.23
2018-03-21T18:15:03.114Z,11.60
2018-03-21T18:17:30.397Z,11.63
2018-03-21T18:19:57.674Z,11.27
2018-03-21T18:22:24.933Z,12.63
2018-03-21T18:24:52.208Z,13.33
2018-03-21T18:27:19.473Z,12.20
2018-03-21T18:29:46.757Z,11.93
2018-03-21T18:32:14.025Z,13.90
2018-03-21T18:34:41.394Z,12.50
2018-03-21T18:37:08.656Z,13.73
2018-03-21T18:39:35.969Z,14.33
2018-03-21T18:42:03.238Z,12.53
2018-03-21T18:44:30.529Z,12.00
2018-03-21T18:46:57.795Z,14.50
2018-03-21T18:49:25.073Z,12.80
2018-03-21T18:51:52.381Z,12.97
2018-03-21T18:54:19.672Z,13.57
2018-03-21T18:56:46.937Z,13.27
2018-03-21T18:59:14.236Z,14.00
2018-03-21T19:01:41.500Z,14.00
2018-03-21T19:04:08.766Z,12.43
2018-03-21T19:06:36.096Z,15.33
2018-03-21T19:09:03.361Z,12.60
2018-03-21T19:11:30.648Z,13.30
2018-03-21T19:13:57.914Z,11.93
2018-03-21T19:16:25.206Z,12.57
2018-03-21T19:18:52.563Z,12.10
2018-03-21T19:21:19.925Z,12.63
2018-03-21T19:23:47.193Z,11.53
2018-03-21T19:26:14.488Z,11.97
2018-03-21T19:28:41.749Z,12.93
2018-03-21T19:31:09.030Z,12.50
2018-03-21T19:33:36.302Z,13.37
2018-03-21T19:36:03.589Z,15.13
2018-03-21T19:38:30.846Z,13.90
2018-03-21T19:40:58.265Z,15.53
2018-03-21T19:43:25.681Z,15.03
2018-03-21T19:45:52.980Z,15.97
2018-03-21T19:48:20.220Z,14.90
2018-03-21T19:50:47.580Z,15.30
2018-03-21T19:53:14.872Z,16.50
2018-03-21T19:55:42.192Z,17.37
2018-03-21T19:58:09.480Z,15.30
2018-03-21T20:00:36.753Z,15.30
2018-03-21T20:03:04.393Z,15.00
2018-03-21T20:05:31.858Z,14.70
2018-03-21T20:07:59.094Z,14.60
2018-03-21T20:10:26.353Z,17.13
2018-03-21T20:12:53.641Z,15.23
2018-03-21T20:15:20.905Z,15.73
2018-03-21T20:17:48.171Z,15.40
2018-03-21T20:20:15.445Z,16.43
2018-03-21T20:22:42.742Z,15.53
2018-03-21T20:25:10.048Z,16.13
2018-03-21T20:27:37.396Z,15.43
2018-03-21T20:30:04.661Z,17.17
2018-03-21T20:32:31.951Z,17.07
2018-03-21T20:34:59.239Z,17.03
2018-03-21T20:37:26.501Z,16.97
2018-03-21T20:39:53.872Z,17.13
2018-03-21T20:42:21.128Z,16.33
2018-03-21T20:44:48.488Z,17.90
2018-03-21T20:47:15.769Z,17.10
2018-03-21T20:49:43.033Z,17.70
2018-03-21T20:52:10.316Z,15.60
2018-03-21T20:54:37.593Z,16.23
2018-03-21T20:57:04.872Z,16.73
2018-03-21T20:59:32.141Z,18.13
2018-03-21T21:01:59.429Z,17.17
2018-03-21T21:04:26.697Z,17.27
2018-03-21T21:06:53.981Z,18.07
2018-03-21T21:09:21.245Z,17.30
2018-03-21T21:11:48.937Z,17.30
2018-03-21T21:14:16.248Z,15.73
2018-03-21T21:16:44.088Z,18.97
2018-03-21T21:19:11.477Z,17.47
2018-03-21T21:21:38.757Z,17.10
2018-03-21T21:24:06.033Z,16.93
2018-03-21T21:26:33.329Z,18.97
2018-03-21T21:29:00.688Z,18.80
2018-03-21T21:31:27.960Z,17.20
2018-03-21T21:33:55.254Z,17.80
2018-03-21T21:36:22.563Z,17.97
2018-03-21T21:38:49.862Z,19.00
2018-03-21T21:41:17.156Z,19.20
2018-03-21T21:43:44.454Z,18.10
2018-03-21T21:46:11.774Z,17.57
2018-03-21T21:48:39.707Z,19.47
2018-03-21T21:51:07.334Z,17.73
2018-03-21T21:53:34.623Z,20.03
2018-03-21T21:56:01.907Z,17.50
2018-03-21T21:58:29.202Z,19.90
2018-03-21T22:00:56.476Z,19.47
2018-03-21T22:03:24.868Z,20.03
2018-03-21T22:05:52.519Z,20.63
2018-03-21T22:08:19.835Z,18.30
2018-03-21T22:10:47.093Z,18.67
2018-03-21T22:13:14.360Z,20.00
2018-03-21T22:15:41.653Z,18.90
2018-03-21T22:18:08.909Z,20.90
2018-03-21T22:20:36.203Z,19.00
2018-03-21T22:23:03.464Z,18.37
2018-03-21T22:25:30.794Z,18.27
2018-03-21T22:27:58.063Z,19.70
2018-03-21T22:30:25.352Z,21.10
2018-03-21T22:32:52.685Z,20.43
2018-03-21T22:35:19.947Z,20.30
2018-03-21T22:37:47.214Z,21.67
2018-03-21T22:40:14.481Z,19.90
2018-03-21T22:42:41.786Z,21.10
2018-03-21T22:45:09.054Z,21.80
2018-03-21T22:47:36.349Z,20.37
2018-03-21T22:50:03.613Z,21.23
2018-03-21T22:52:30.925Z,20.93
2018-03-21T22:54:58.198Z,21.80
2018-03-21T22:57:25.489Z,22.30
2018-03-21T22:59:53.157Z,21.33
2018-03-21T23:02:20.444Z,21.97
2018-03-21T23:04:47.709Z,21.87
2018-03-21T23:07:15.013Z,23.37
2018-03-21T23:09:42.273Z,24.63
2018-03-21T23:12:09.562Z,26.73
2018-03-21T23:14:36.838Z,25.80
2018-03-21T23:17:04.133Z,23.30
2018-03-21T23:19:31.487Z,22.47
2018-03-21T23:21:58.893Z,22.93
2018-03-21T23:24:26.121Z,22.50
2018-03-21T23:26:53.407Z,23.93
2018-03-21T23:29:20.701Z,24.63
2018-03-21T23:31:47.976Z,21.70
2018-03-21T23:34:15.274Z,22.50
2018-03-21T23:36:42.688Z,22.63
2018-03-21T23:39:10.770Z,21.27
2018-03-21T23:41:38.387Z,21.70
2018-03-21T23:44:05.658Z,23.77
2018-03-21T23:46:32.935Z,21.73
2018-03-21T23:49:00.230Z,23.20
2018-03-21T23:51:27.507Z,23.07
2018-03-21T23:53:54.823Z,22.97
2018-03-21T23:56:22.100Z,21.47
2018-03-21T23:58:49.394Z,23.77
